< < Back
Terminal Aerodrome Forecast


Current Version              Previous Versions:   1  2  3  4  5  6  7  8  9  

Terminal Aerodrome Forecast

545
FTUS42 KILM 202100 AAA
TAFILM
TAF AMD
KILM 202109Z 2021/2118 05008KT P6SM SCT010 OVC030
      TEMPO 2021/2022 6SM -RA BR BKN010
     FM211000 01006KT 4SM BR SCT006 SCT020 BKN050
     FM211500 04009KT P6SM SCT040 BKN060=

Latest METAR

628
SAUS70 KWBC 210200 RRM
MTRILM
METAR KILM 210153Z 03007KT 5SM BR FEW005 BKN080 04/03 A3026 RMK AO2
SLP247 T00390033


USA.gov is the U.S. government's official web portal to all federal, state and local government web resources and services.